Time;durP1;ratioP1;P1;durP2;ratioP2;P2;SDS_P1;SDS_P2;PMS_P1;PMS_P2;Temp;Humidity;BMP_temperature;BMP_pressure;BME280_temperature;BME280_humidity;BME280_pressure;Samples;Min_cycle;Max_cycle;Signal;HPM_P1;HPM_P2
2022/03/04 00:02:00;;;;;;;;;;;1.60;52.70;;;-0.15;46.84;95975.97;4976347;28;19928;-66
2022/03/04 00:04:26;;;;;;;;;;;1.60;52.90;;;-0.15;46.92;95981.16;4971021;28;20242;-67
2022/03/04 00:06:55;;;;;;;;;;;1.60;52.90;;;-0.15;46.66;95981.16;4973882;28;20021;-66
2022/03/04 00:09:21;;;;;;;;;;;1.60;52.90;;;-0.16;47.15;95982.09;4971605;28;19948;-66
2022/03/04 00:11:49;;;;;;;;;;;1.60;53.00;;;-0.20;47.46;95974.72;4972926;28;19922;-66
2022/03/04 00:14:15;;;;;;;;;;;1.60;53.20;;;-0.21;46.68;95975.69;4981112;28;20544;-64
2022/03/04 00:16:40;;;;;;;;;;;1.60;52.70;;;-0.23;46.88;95977.53;4971812;28;19976;-65
2022/03/04 00:19:07;;;;;;;;;;;1.60;52.70;;;-0.24;46.85;95981.88;4980869;28;20309;-65
2022/03/04 00:21:34;;;;;;;;;;;1.50;52.70;;;-0.26;47.36;95978.59;4972950;28;19934;-65
2022/03/04 00:24:00;;;;;;;;;;;1.50;52.60;;;-0.27;47.21;95979.56;4990026;28;19925;-66
2022/03/04 00:26:26;;;;;;;;;;;1.50;52.70;;;-0.31;47.47;95986.75;4988480;28;19925;-66
2022/03/04 00:28:51;;;;;;;;;;;1.50;52.80;;;-0.31;47.25;95981.56;4966023;28;20017;-66
2022/03/04 00:31:17;;;;;;;;;;;1.50;52.80;;;-0.31;47.35;95991.09;4980467;28;19922;-65
2022/03/04 00:33:43;;;;;;;;;;;1.50;52.80;;;-0.34;47.34;95991.34;4975684;28;19937;-65
2022/03/04 00:36:08;;;;;;;;;;;1.50;52.90;;;-0.36;47.37;95993.25;4975699;28;20001;-65
2022/03/04 00:38:34;;;;;;;;;;;1.40;52.70;;;-0.39;47.70;95998.66;4947972;28;19982;-66
2022/03/04 00:41:00;;;;;;;;;;;1.40;52.90;;;-0.41;47.35;95991.03;4980886;28;20283;-65
2022/03/04 00:43:25;;;;;;;;;;;1.40;52.70;;;-0.42;46.74;95996.31;4971904;28;20026;-65
2022/03/04 00:45:51;;;;;;;;;;;1.30;52.40;;;-0.44;47.19;95995.63;4977766;28;19948;-66
2022/03/04 00:48:17;;;;;;;;;;;1.30;52.50;;;-0.48;46.95;95995.03;4954947;28;19958;-65
2022/03/04 00:50:43;;;;;;;;;;;1.30;52.40;;;-0.50;46.91;95996.94;4973892;28;19948;-65
2022/03/04 00:53:08;;;;;;;;;;;1.30;52.30;;;-0.53;46.85;95997.19;4980987;28;20337;-66
2022/03/04 00:55:37;;;;;;;;;;;1.20;52.50;;;-0.57;46.98;95990.63;4981170;28;19922;-66
2022/03/04 00:58:06;;;;;;;;;;;1.20;52.30;;;-0.58;46.85;95998.50;4967471;28;19921;-66
2022/03/04 01:00:33;;;;;;;;;;;1.20;52.40;;;-0.60;46.61;95988.28;4981144;28;20278;-66
2022/03/04 01:03:00;;;;;;;;;;;1.10;52.00;;;-0.60;46.77;95990.06;4970979;28;19925;-66
2022/03/04 01:05:25;;;;;;;;;;;1.20;52.00;;;-0.63;46.77;95984.19;4945803;28;19929;-66
2022/03/04 01:07:51;;;;;;;;;;;1.10;52.20;;;-0.64;46.65;95981.72;4991419;28;20321;-66
2022/03/04 01:10:17;;;;;;;;;;;1.10;51.70;;;-0.65;47.20;95983.50;4989159;28;20289;-66
2022/03/04 01:12:42;;;;;;;;;;;1.10;51.60;;;-0.64;46.57;95986.91;4954573;28;19930;-67
2022/03/04 01:15:09;;;;;;;;;;;1.10;51.70;;;-0.66;46.57;95979.28;4957050;28;19928;-67
2022/03/04 01:17:34;;;;;;;;;;;1.10;51.70;;;-0.67;46.55;95977.63;4953851;28;19934;-66
2022/03/04 01:20:00;;;;;;;;;;;1.10;51.60;;;-0.69;46.67;95971.75;4978425;28;19922;-66
2022/03/04 01:22:26;;;;;;;;;;;1.10;51.60;;;-0.69;46.50;95971.75;4974178;28;19961;-67
2022/03/04 01:24:53;;;;;;;;;;;1.10;51.50;;;-0.72;46.95;95972.00;4984899;28;19948;-67
2022/03/04 01:27:19;;;;;;;;;;;1.10;51.50;;;-0.70;46.87;95970.09;4966543;28;19948;-67
2022/03/04 01:29:45;;;;;;;;;;;1.10;51.80;;;-0.71;46.83;95963.31;4978381;28;20377;-66
2022/03/04 01:32:10;;;;;;;;;;;1.10;51.70;;;-0.71;47.32;95970.22;4982439;28;19976;-66
2022/03/04 01:34:36;;;;;;;;;;;1.10;51.60;;;-0.75;47.36;95967.06;4971014;28;19929;-66
2022/03/04 01:37:02;;;;;;;;;;;1.10;52.00;;;-0.76;46.96;95965.44;4970482;28;20072;-66
2022/03/04 01:39:28;;;;;;;;;;;1.00;52.10;;;-0.79;47.40;95964.88;4970515;28;19922;-66
2022/03/04 01:41:53;;;;;;;;;;;1.00;52.20;;;-0.81;47.05;95971.94;4951771;28;20397;-66
2022/03/04 01:44:19;;;;;;;;;;;1.00;52.50;;;-0.83;47.53;95966.88;4985967;28;19971;-67
2022/03/04 01:46:45;;;;;;;;;;;1.00;52.40;;;-0.84;47.48;95973.00;4985930;28;20012;-66
2022/03/04 01:49:11;;;;;;;;;;;0.90;52.60;;;-0.84;47.28;95964.44;4968113;28;20028;-66
2022/03/04 01:51:37;;;;;;;;;;;0.90;52.50;;;-0.86;47.24;95968.91;4974476;28;20440;-66
2022/03/04 01:54:03;;;;;;;;;;;1.00;52.10;;;-0.90;47.65;95960.56;4972569;28;19918;-66
2022/03/04 01:56:29;;;;;;;;;;;0.90;52.30;;;-0.89;47.24;95963.97;4953391;28;20358;-66
2022/03/04 01:58:54;;;;;;;;;;;1.00;52.40;;;-0.89;46.93;95962.22;4981163;28;19922;-66
2022/03/04 02:01:20;;;;;;;;;;;0.90;52.30;;;-0.92;47.20;95959.84;4960138;28;19936;-66
2022/03/04 02:03:46;;;;;;;;;;;0.90;52.20;;;-0.93;47.24;95958.22;4953190;28;19937;-67
2022/03/04 02:06:11;;;;;;;;;;;0.90;52.30;;;-0.96;47.10;95953.31;4988414;28;20012;-67
2022/03/04 02:08:37;;;;;;;;;;;0.80;52.20;;;-0.98;48.23;95955.19;4989035;28;19922;-66
2022/03/04 02:11:03;;;;;;;;;;;0.80;52.40;;;-1.00;47.42;95952.72;4966097;28;19949;-67
2022/03/04 02:13:28;;;;;;;;;;;0.80;52.50;;;-1.02;47.79;95948.63;4974027;28;20349;-66
2022/03/04 02:15:54;;;;;;;;;;;0.80;52.80;;;-1.07;48.00;95943.03;4985085;28;19987;-66
2022/03/04 02:18:20;;;;;;;;;;;0.70;52.80;;;-1.09;47.71;95947.47;4958392;28;19940;-66
2022/03/04 02:20:47;;;;;;;;;;;0.70;53.00;;;-1.10;48.01;95940.69;4958057;28;20504;-66
2022/03/04 02:23:13;;;;;;;;;;;0.70;53.00;;;-1.11;47.59;95939.03;4989096;28;19928;-66
2022/03/04 02:25:40;;;;;;;;;;;0.70;52.80;;;-1.10;47.90;95940.69;4981552;28;19967;-66
2022/03/04 02:28:06;;;;;;;;;;;0.70;52.90;;;-1.12;48.04;95942.56;4988012;28;20301;-66
2022/03/04 02:30:32;;;;;;;;;;;0.70;52.60;;;-1.15;47.95;95942.78;4983348;28;19922;-66
2022/03/04 02:32:58;;;;;;;;;;;0.60;52.90;;;-1.17;47.92;95939.50;4970542;28;19929;-66
2022/03/04 02:35:23;;;;;;;;;;;0.60;53.00;;;-1.18;48.07;95940.44;4987657;28;19922;-66
2022/03/04 02:37:49;;;;;;;;;;;0.60;53.20;;;-1.19;48.24;95937.03;4928821;28;19984;-66
2022/03/04 02:40:15;;;;;;;;;;;0.60;53.00;;;-1.21;48.23;95936.34;4963298;28;19975;-66
2022/03/04 02:42:40;;;;;;;;;;;0.60;53.10;;;-1.23;48.18;95936.47;4956881;28;19922;-66
2022/03/04 02:45:06;;;;;;;;;;;0.50;53.20;;;-1.24;47.56;95934.00;4972553;28;19929;-66
2022/03/04 02:47:32;;;;;;;;;;;0.50;53.00;;;-1.30;47.96;95932.75;4982679;28;20386;-66
2022/03/04 02:49:58;;;;;;;;;;;0.50;53.10;;;-1.34;48.06;95928.78;4985937;28;20352;-66
2022/03/04 02:52:24;;;;;;;;;;;0.40;53.00;;;-1.38;48.36;95924.78;4973575;28;20432;-65
2022/03/04 02:54:49;;;;;;;;;;;0.40;53.10;;;-1.39;48.34;95936.03;4982182;28;19933;-67
2022/03/04 02:57:15;;;;;;;;;;;0.40;53.10;;;-1.43;47.86;95934.63;4988893;28;19926;-66
2022/03/04 02:59:40;;;;;;;;;;;0.40;52.90;;;-1.44;48.21;95930.41;4972092;28;19998;-66
2022/03/04 03:02:06;;;;;;;;;;;0.30;53.20;;;-1.49;48.64;95937.69;4986136;28;19929;-66
2022/03/04 03:04:32;;;;;;;;;;;0.30;53.20;;;-1.53;48.28;95933.72;4962475;28;19926;-66
2022/03/04 03:06:58;;;;;;;;;;;0.30;53.20;;;-1.53;48.30;95943.22;4985541;28;19926;-66
2022/03/04 03:09:23;;;;;;;;;;;0.30;53.30;;;-1.58;48.82;95941.00;4991248;28;19925;-66
2022/03/04 03:11:49;;;;;;;;;;;0.30;53.50;;;-1.62;48.77;95929.25;4991957;28;21763;-66
2022/03/04 03:14:15;;;;;;;;;;;0.30;53.40;;;-1.62;48.89;95944.72;4977401;28;19940;-66
2022/03/04 03:16:40;;;;;;;;;;;0.30;53.60;;;-1.64;49.15;95937.13;4980330;28;20028;-67
2022/03/04 03:19:08;;;;;;;;;;;0.20;53.70;;;-1.67;48.64;95933.97;4987331;28;19922;-66
2022/03/04 03:21:34;;;;;;;;;;;0.20;53.90;;;-1.71;49.47;95937.72;4979873;28;20420;-67
2022/03/04 03:23:59;;;;;;;;;;;0.10;54.20;;;-1.73;50.15;95937.00;4969014;28;19922;-66
2022/03/04 03:26:25;;;;;;;;;;;0.10;54.50;;;-1.77;49.44;95925.31;4983787;28;19928;-67
2022/03/04 03:28:51;;;;;;;;;;;0.10;54.40;;;-1.80;49.38;95935.84;4992235;28;19928;-66
2022/03/04 03:31:16;;;;;;;;;;;0.10;54.50;;;-1.81;50.00;95935.03;4971895;28;19935;-66
2022/03/04 03:33:43;;;;;;;;;;;0.10;54.80;;;-1.85;50.02;95939.56;4978794;28;19925;-67
2022/03/04 03:36:08;;;;;;;;;;;0.10;55.00;;;-1.83;50.86;95936.06;4990040;28;19925;-66
2022/03/04 03:38:34;;;;;;;;;;;0.10;55.60;;;-1.85;49.66;95941.34;4990153;28;19921;-66
2022/03/04 03:41:00;;;;;;;;;;;0.00;55.30;;;-1.87;51.15;95951.75;4963665;28;20382;-67
2022/03/04 03:43:25;;;;;;;;;;;0.00;55.50;;;-1.91;49.88;95946.97;4985539;28;19926;-67
2022/03/04 03:45:51;;;;;;;;;;;0.00;55.40;;;-1.92;50.33;95948.72;4961216;28;19926;-67
2022/03/04 03:48:17;;;;;;;;;;;0.00;55.50;;;-1.96;50.26;95942.16;4962304;28;19950;-67
2022/03/04 03:50:42;;;;;;;;;;;0.00;55.90;;;-1.98;51.05;95951.75;4970608;28;19929;-66
2022/03/04 03:53:09;;;;;;;;;;;0.00;56.00;;;-2.02;50.46;95952.94;4972446;28;19922;-66
2022/03/04 03:55:35;;;;;;;;;;;0.00;56.10;;;-2.04;50.86;95962.50;4970187;28;19929;-67
2022/03/04 03:58:00;;;;;;;;;;;-3276.70;56.10;;;-2.04;50.76;95959.94;4974499;28;19938;-66
2022/03/04 04:00:26;;;;;;;;;;;-3276.70;56.20;;;-2.03;49.95;95960.78;4987101;28;19921;-66
2022/03/04 04:02:52;;;;;;;;;;;-3276.70;55.90;;;-2.05;50.30;95960.88;4961273;28;19930;-67
2022/03/04 04:05:18;;;;;;;;;;;-3276.70;55.80;;;-2.07;49.92;95970.47;4966409;28;19964;-66
2022/03/04 04:07:44;;;;;;;;;;;-3276.70;55.40;;;-2.12;49.33;95962.28;4990991;28;19994;-67
2022/03/04 04:10:09;;;;;;;;;;;-3276.60;55.40;;;-2.14;50.51;95968.50;4959370;28;19922;-66
2022/03/04 04:12:35;;;;;;;;;;;-3276.60;55.60;;;-2.20;50.80;95980.91;4990194;28;19925;-66
2022/03/04 04:15:01;;;;;;;;;;;-3276.60;55.90;;;-2.22;50.48;95974.22;4958051;28;19970;-66
2022/03/04 04:17:26;;;;;;;;;;;-3276.50;55.70;;;-2.25;50.03;95977.03;4974379;28;19945;-67
2022/03/04 04:19:53;;;;;;;;;;;-3276.50;55.70;;;-2.30;50.22;95972.19;4974793;28;19933;-67
2022/03/04 04:22:19;;;;;;;;;;;-3276.50;55.60;;;-2.33;49.61;95979.31;4990094;28;19924;-67
2022/03/04 04:24:45;;;;;;;;;;;-3276.40;55.60;;;-2.36;50.43;95989.88;4965193;28;19928;-66
2022/03/04 04:27:11;;;;;;;;;;;-3276.40;56.00;;;-2.41;50.17;95986.81;4981424;28;19926;-66
2022/03/04 04:29:36;;;;;;;;;;;-3276.30;56.30;;;-2.45;50.31;95985.41;4988143;28;19922;-66
2022/03/04 04:32:02;;;;;;;;;;;-3276.30;56.40;;;-2.49;50.40;95989.91;4983750;28;19976;-66
2022/03/04 04:34:28;;;;;;;;;;;-3276.30;56.30;;;-2.56;50.71;95983.59;4971486;28;19922;-66
2022/03/04 04:36:54;;;;;;;;;;;-3276.20;56.20;;;-2.61;51.14;95986.50;4978980;28;19922;-65
2022/03/04 04:39:19;;;;;;;;;;;-3276.20;56.60;;;-2.64;51.90;95986.72;4975172;28;19922;-66
2022/03/04 04:41:45;;;;;;;;;;;-3276.20;57.20;;;-2.64;52.10;95981.56;4988463;28;19925;-66
2022/03/04 04:44:11;;;;;;;;;;;-3276.20;57.80;;;-2.66;52.12;95982.63;4986682;28;19926;-66
2022/03/04 04:46:37;;;;;;;;;;;-3276.20;57.70;;;-2.66;52.04;95990.34;4943428;28;19922;-65
2022/03/04 04:49:02;;;;;;;;;;;-3276.20;57.80;;;-2.70;52.33;95997.47;4977874;28;20374;-66
2022/03/04 04:51:28;;;;;;;;;;;-3276.20;57.90;;;-2.72;51.97;95999.31;4981183;28;19928;-66
2022/03/04 04:53:54;;;;;;;;;;;-3276.10;57.80;;;-2.73;52.43;95996.84;4970648;28;19922;-65
2022/03/04 04:56:20;;;;;;;;;;;-3276.10;57.90;;;-2.73;52.62;95996.84;4975007;28;19980;-66
2022/03/04 04:58:46;;;;;;;;;;;-3276.10;58.30;;;-2.75;52.26;95996.13;4971229;28;19925;-66
2022/03/04 05:01:12;;;;;;;;;;;-3276.00;58.50;;;-2.78;52.04;95997.19;4959110;28;20281;-65
2022/03/04 05:03:37;;;;;;;;;;;-3276.00;58.50;;;-2.80;51.94;95999.06;4968906;28;19935;-66
2022/03/04 05:06:03;;;;;;;;;;;-3275.90;58.40;;;-2.84;52.41;95997.63;4969509;28;19925;-65
2022/03/04 05:08:29;;;;;;;;;;;-3276.00;58.60;;;-2.88;52.14;95998.78;4982615;28;20452;-66
2022/03/04 05:10:58;;;;;;;;;;;-3275.90;58.30;;;-2.92;52.63;96008.47;4969423;28;19925;-66
2022/03/04 05:13:24;;;;;;;;;;;-3275.80;58.50;;;-2.96;51.84;96003.63;4980591;28;19987;-67
2022/03/04 05:15:50;;;;;;;;;;;-3275.80;58.60;;;-2.97;52.76;96012.28;4985105;28;20346;-67
2022/03/04 05:18:15;;;;;;;;;;;-3275.80;58.90;;;-3.05;52.50;96004.31;4988668;28;19940;-66
2022/03/04 05:20:41;;;;;;;;;;;-3275.80;59.00;;;-3.05;51.96;96010.25;4997509;28;19932;-66
2022/03/04 05:23:07;;;;;;;;;;;-3275.70;58.80;;;-3.10;52.50;96020.88;5000243;28;20382;-66
2022/03/04 05:25:32;;;;;;;;;;;-3275.60;59.10;;;-3.15;52.80;96010.09;4971280;28;19922;-67
2022/03/04 05:27:58;;;;;;;;;;;-3275.60;59.40;;;-3.17;53.45;96016.25;4953931;28;19926;-66
2022/03/04 05:30:24;;;;;;;;;;;-3275.60;59.40;;;-3.18;53.63;96020.56;4993930;28;19922;-65
2022/03/04 05:32:49;;;;;;;;;;;-3275.60;59.70;;;-3.21;53.51;96020.78;4992294;28;19926;-66
2022/03/04 05:35:15;;;;;;;;;;;-3275.60;59.80;;;-3.23;53.17;96022.66;4969650;28;19930;-66
2022/03/04 05:37:41;;;;;;;;;;;-3275.60;59.90;;;-3.26;53.03;96025.44;4986958;28;20342;-66
2022/03/04 05:40:07;;;;;;;;;;;-3275.60;59.60;;;-3.27;54.22;96025.56;4978259;28;20007;-66
2022/03/04 05:42:33;;;;;;;;;;;-3275.60;60.00;;;-3.31;54.03;96022.38;4970410;28;19958;-66
2022/03/04 05:44:59;;;;;;;;;;;-3275.50;60.20;;;-3.28;54.16;96027.31;4982655;28;19929;-66
2022/03/04 05:47:24;;;;;;;;;;;-3275.60;60.00;;;-3.30;53.65;96033.47;4988374;28;19930;-66
2022/03/04 05:49:51;;;;;;;;;;;-3275.50;59.70;;;-3.28;53.63;96036.78;4967577;28;19964;-66
2022/03/04 05:52:16;;;;;;;;;;;-3275.60;60.20;;;-3.29;53.95;96035.94;4975548;28;19929;-67
2022/03/04 05:54:42;;;;;;;;;;;-3275.60;60.00;;;-3.28;54.36;96037.59;4977906;28;20317;-67
2022/03/04 05:57:08;;;;;;;;;;;-3275.70;60.10;;;-3.28;54.37;96042.75;4987965;28;19922;-67
2022/03/04 05:59:33;;;;;;;;;;;-3275.70;60.00;;;-3.26;54.13;96048.59;4976833;28;19922;-65
2022/03/04 06:01:59;;;;;;;;;;;-3275.70;60.00;;;-3.27;54.05;96040.97;4973525;28;20452;-66
2022/03/04 06:04:24;;;;;;;;;;;-3275.60;60.10;;;-3.25;54.38;96046.84;4960660;28;20174;-66
2022/03/04 06:06:50;;;;;;;;;;;-3275.60;60.60;;;-3.26;54.56;96048.59;4971248;28;19926;-67
2022/03/04 06:09:16;;;;;;;;;;;-3275.70;60.50;;;-3.30;54.16;96044.59;4969351;28;19937;-66
2022/03/04 06:11:42;;;;;;;;;;;-3275.70;60.30;;;-3.26;53.72;96053.72;4961580;28;19926;-66
2022/03/04 06:14:07;;;;;;;;;;;-3275.70;59.90;;;-3.22;54.48;96057.75;4977754;28;19925;-66
2022/03/04 06:16:33;;;;;;;;;;;-3275.70;60.10;;;-3.22;54.16;96062.88;4983367;28;19933;-66
2022/03/04 06:18:59;;;;;;;;;;;-3275.80;60.10;;;-3.20;54.13;96062.78;4985857;28;20330;-66
2022/03/04 06:21:24;;;;;;;;;;;-3275.80;60.00;;;-3.18;54.71;96064.31;4977633;28;19969;-66
2022/03/04 06:23:50;;;;;;;;;;;-3275.80;60.00;;;-3.18;54.51;96059.16;5002535;28;19933;-66
2022/03/04 06:26:16;;;;;;;;;;;-3275.90;59.80;;;-3.14;54.45;96068.34;4969744;28;19929;-65
2022/03/04 06:28:42;;;;;;;;;;;-3275.90;59.90;;;-3.11;55.02;96069.88;4966249;28;20361;-65
2022/03/04 06:31:08;;;;;;;;;;;-3276.00;60.40;;;-3.05;55.51;96073.75;4989649;28;19934;-66
2022/03/04 06:33:35;;;;;;;;;;;-3276.00;60.60;;;-3.02;55.52;96076.13;4986709;28;20262;-65
2022/03/04 06:36:11;;;;;;;;;;;-3276.10;60.60;;;-2.99;55.84;96078.47;4973758;28;19921;-67
2022/03/04 06:38:39;;;;;;;;;;;-3276.10;60.90;;;-2.94;55.79;96084.13;4962188;28;19992;-65
2022/03/04 06:41:04;;;;;;;;;;;-3276.10;60.50;;;-2.89;56.41;96080.31;4989827;28;20366;-66
2022/03/04 06:43:30;;;;;;;;;;;-3276.30;60.80;;;-2.80;56.38;96094.28;5006057;28;19921;-69
2022/03/04 06:45:56;;;;;;;;;;;-3276.40;61.00;;;-2.72;55.90;96094.56;4988448;28;19922;-67
2022/03/04 06:48:22;;;;;;;;;;;-3276.50;60.60;;;-2.62;56.47;96092.19;4981281;28;20400;-68
2022/03/04 06:50:49;;;;;;;;;;;-3276.70;60.30;;;-2.50;55.81;96102.41;4989031;28;19933;-67
2022/03/04 06:53:14;;;;;;;;;;;0.00;60.40;;;-2.38;56.16;96108.47;4990366;28;19932;-68
2022/03/04 06:55:40;;;;;;;;;;;0.10;60.50;;;-2.27;57.48;96100.75;4990552;28;19921;-67
2022/03/04 06:58:06;;;;;;;;;;;0.30;60.90;;;-2.14;57.17;96103.28;4969478;28;20330;-66
2022/03/04 07:00:31;;;;;;;;;;;0.50;60.50;;;-2.00;56.79;96103.13;4963541;28;19926;-67
2022/03/04 07:02:57;;;;;;;;;;;0.80;59.60;;;-1.86;56.49;96107.25;4961366;28;19926;-66
2022/03/04 07:05:23;;;;;;;;;;;0.90;59.40;;;-1.69;55.84;96103.44;4968941;28;20087;-67
2022/03/04 07:07:49;;;;;;;;;;;1.20;59.30;;;-1.52;56.42;96104.78;4993302;28;19947;-67
2022/03/04 07:10:15;;;;;;;;;;;1.40;58.70;;;-1.37;55.36;96104.41;4974531;28;19922;-64
2022/03/04 07:12:41;;;;;;;;;;;1.60;57.60;;;-1.18;55.66;96108.19;4973345;28;19922;-68
2022/03/04 07:15:07;;;;;;;;;;;1.80;56.90;;;-1.01;55.13;96111.13;4978954;28;20386;-67
2022/03/04 07:17:33;;;;;;;;;;;2.10;56.20;;;-0.79;53.39;96109.47;4982945;28;19922;-68
2022/03/04 07:19:59;;;;;;;;;;;2.30;54.10;;;-0.58;52.14;96109.56;4971568;28;19944;-69
2022/03/04 07:22:24;;;;;;;;;;;2.60;52.00;;;-0.34;51.82;96112.81;4989510;28;20445;-70
2022/03/04 07:24:50;;;;;;;;;;;3.00;51.10;;;-0.13;50.16;96113.69;4991287;28;19973;-70
2022/03/04 07:27:15;;;;;;;;;;;3.30;49.30;;;0.10;49.95;96104.06;4980839;28;19922;-71
2022/03/04 07:29:41;;;;;;;;;;;3.60;48.50;;;0.32;50.29;96113.50;4955495;28;19930;-66
2022/03/04 07:32:07;;;;;;;;;;;3.90;48.20;;;0.58;49.55;96114.75;4972659;28;19922;-68
2022/03/04 07:34:33;;;;;;;;;;;4.20;47.30;;;0.84;48.80;96111.75;4984757;28;19922;-69
2022/03/04 07:36:58;;;;;;;;;;;4.60;46.90;;;1.11;48.40;96108.59;4982662;28;19917;-67
2022/03/04 07:39:24;;;;;;;;;;;4.90;45.20;;;1.36;48.33;96120.28;4990264;28;19922;-63
2022/03/04 07:41:51;;;;;;;;;;;5.10;44.70;;;1.61;46.32;96109.44;4985650;28;20736;-66
2022/03/04 07:44:17;;;;;;;;;;;5.50;42.70;;;1.88;46.16;96107.97;4982807;28;19946;-66
2022/03/04 07:46:43;;;;;;;;;;;6.00;41.90;;;2.14;44.93;96122.06;4961760;28;19922;-68
2022/03/04 07:49:09;;;;;;;;;;;6.40;40.70;;;2.39;45.37;96113.72;4971120;28;19932;-67
2022/03/04 07:51:34;;;;;;;;;;;6.90;40.00;;;2.69;44.33;96117.06;4983508;28;19918;-67
2022/03/04 07:54:00;;;;;;;;;;;7.30;38.60;;;2.95;43.79;96117.31;4986333;28;19936;-66
2022/03/04 07:56:26;;;;;;;;;;;7.80;37.70;;;3.19;43.82;96122.03;4972210;28;20425;-69
2022/03/04 07:58:51;;;;;;;;;;;8.10;36.80;;;3.38;43.36;96122.72;4971528;28;19930;-68
2022/03/04 08:01:17;;;;;;;;;;;8.30;36.20;;;3.66;42.52;96125.34;4972406;28;19929;-68
2022/03/04 08:03:43;;;;;;;;;;;8.60;35.10;;;3.84;42.48;96125.34;4970637;28;19992;-67
2022/03/04 08:06:09;;;;;;;;;;;8.80;35.30;;;4.10;41.71;96125.47;4983081;28;19932;-67
2022/03/04 08:08:34;;;;;;;;;;;9.10;34.40;;;4.28;41.95;96119.28;4990569;28;19946;-69
2022/03/04 08:11:00;;;;;;;;;;;9.40;34.40;;;4.50;41.23;96119.78;4968129;28;19933;-70
2022/03/04 08:13:26;;;;;;;;;;;9.70;33.30;;;4.68;40.79;96125.81;4986449;28;19929;-68
2022/03/04 08:15:52;;;;;;;;;;;9.90;32.80;;;4.88;40.85;96129.84;4987050;28;19925;-68
2022/03/04 08:18:18;;;;;;;;;;;10.30;32.40;;;5.08;41.08;96132.25;4988897;28;19995;-67
2022/03/04 08:20:43;;;;;;;;;;;10.50;32.10;;;5.28;40.06;96138.91;4985297;28;19921;-70
2022/03/04 08:23:11;;;;;;;;;;;10.70;31.60;;;5.45;40.29;96135.41;4976443;28;19922;-69
2022/03/04 08:25:38;;;;;;;;;;;11.00;31.10;;;5.67;40.73;96143.66;4971531;28;19926;-67
2022/03/04 08:28:04;;;;;;;;;;;11.40;31.30;;;5.92;39.66;96127.13;4957107;28;19922;-67
2022/03/04 08:30:29;;;;;;;;;;;11.70;30.30;;;6.16;39.21;96128.97;4970883;28;19980;-66
2022/03/04 08:32:55;;;;;;;;;;;12.10;29.40;;;6.36;38.90;96134.72;4974592;28;19988;-67
2022/03/04 08:35:21;;;;;;;;;;;12.10;29.20;;;6.57;39.19;96123.78;4968643;28;19918;-68
2022/03/04 08:37:47;;;;;;;;;;;12.40;29.10;;;6.80;38.29;96131.78;4970270;28;20389;-68
2022/03/04 08:40:12;;;;;;;;;;;12.80;28.50;;;7.02;37.73;96131.09;4972677;28;19958;-68
2022/03/04 08:42:39;;;;;;;;;;;13.00;28.20;;;7.25;37.55;96121.56;4989344;28;19921;-66
2022/03/04 08:45:05;;;;;;;;;;;13.10;27.80;;;7.51;37.94;96128.38;4985967;28;19964;-67
2022/03/04 08:47:30;;;;;;;;;;;13.50;27.80;;;7.77;37.48;96125.47;4970921;28;19921;-69
2022/03/04 08:49:56;;;;;;;;;;;13.70;27.00;;;8.02;37.19;96123.56;4984091;28;20648;-67
2022/03/04 08:52:22;;;;;;;;;;;14.00;27.10;;;8.22;36.23;96128.19;4989330;28;20001;-68
2022/03/04 08:54:48;;;;;;;;;;;14.10;26.40;;;8.50;35.84;96123.25;4986185;28;20356;-66
2022/03/04 08:57:13;;;;;;;;;;;14.40;25.80;;;8.81;36.14;96125.78;5002101;28;19932;-67
2022/03/04 08:59:39;;;;;;;;;;;14.80;26.10;;;9.13;35.06;96124.69;4984150;28;20465;-69
2022/03/04 09:02:05;;;;;;;;;;;15.00;25.70;;;9.41;35.65;96121.44;4975714;28;19922;-67
2022/03/04 09:04:31;;;;;;;;;;;15.30;25.00;;;9.64;34.42;96127.41;4969356;28;20032;-67
2022/03/04 09:06:56;;;;;;;;;;;15.30;24.30;;;9.83;33.65;96126.84;4958419;28;19922;-67
2022/03/04 09:09:22;;;;;;;;;;;15.50;24.30;;;10.14;33.73;96129.22;4970579;28;19926;-67
2022/03/04 09:11:48;;;;;;;;;;;15.80;24.00;;;10.53;33.65;96122.00;4936455;28;19922;-66
2022/03/04 09:14:15;;;;;;;;;;;16.30;23.50;;;10.87;33.48;96122.09;4957624;28;20047;-66
2022/03/04 09:16:41;;;;;;;;;;;16.50;22.50;;;11.11;31.98;96125.31;4981595;28;19921;-67
2022/03/04 09:19:07;;;;;;;;;;;16.80;22.80;;;11.35;31.83;96130.97;4989566;28;20316;-68
2022/03/04 09:21:33;;;;;;;;;;;16.90;21.90;;;11.50;32.24;96125.56;4987550;28;19933;-70
2022/03/04 09:23:59;;;;;;;;;;;16.90;22.00;;;11.60;31.57;96117.34;4989342;28;20456;-69
2022/03/04 09:26:26;;;;;;;;;;;16.90;22.10;;;11.72;31.08;96118.41;4970787;28;19945;-68
2022/03/04 09:28:52;;;;;;;;;;;17.00;21.80;;;11.87;32.36;96118.31;4969547;28;20389;-68
2022/03/04 09:31:18;;;;;;;;;;;17.20;22.10;;;12.05;31.07;96118.59;4987121;28;19925;-67
2022/03/04 09:33:44;;;;;;;;;;;17.60;21.40;;;12.33;30.75;96118.47;4956709;28;19917;-68
2022/03/04 09:36:11;;;;;;;;;;;17.90;20.90;;;12.47;30.25;96114.84;4951759;28;19918;-67
2022/03/04 09:38:38;;;;;;;;;;;18.10;20.90;;;12.79;31.00;96110.63;4954209;28;19918;-68
2022/03/04 09:41:04;;;;;;;;;;;18.70;20.30;;;12.83;29.29;96109.19;4977308;28;20305;-68
2022/03/04 09:43:29;;;;;;;;;;;18.40;19.90;;;12.93;29.70;96108.00;4960389;28;19925;-67
2022/03/04 09:45:55;;;;;;;;;;;19.00;19.70;;;13.04;30.68;96115.28;4941515;28;19925;-68
2022/03/04 09:48:21;;;;;;;;;;;19.50;19.80;;;13.10;29.24;96114.47;4955838;28;19922;-69
2022/03/04 09:50:47;;;;;;;;;;;19.60;19.20;;;13.29;29.23;96111.03;4959605;28;20341;-68
2022/03/04 09:53:12;;;;;;;;;;;20.20;18.70;;;13.44;29.36;96110.81;4989529;28;19926;-68
2022/03/04 09:55:39;;;;;;;;;;;20.80;18.60;;;13.77;30.16;96103.59;4975663;28;19985;-68
2022/03/04 09:58:11;;;;;;;;;;;21.80;18.00;;;14.15;29.07;96099.38;4948587;28;20378;-68
2022/03/04 10:00:38;;;;;;;;;;;22.80;17.30;;;14.52;29.70;96103.91;4976572;28;19921;-68
2022/03/04 10:03:05;;;;;;;;;;;23.60;16.50;;;14.87;29.36;96098.97;4976855;28;20059;-66
2022/03/04 10:05:30;;;;;;;;;;;23.90;16.00;;;15.31;28.24;96099.81;4979430;28;19928;-68
2022/03/04 10:07:56;;;;;;;;;;;25.00;15.20;;;15.85;28.88;96104.38;4976570;28;20338;-67
2022/03/04 10:10:22;;;;;;;;;;;25.70;14.70;;;16.48;27.66;96095.19;4959019;28;19934;-68
2022/03/04 10:12:55;;;;;;;;;;;26.60;14.10;;;16.97;28.49;96088.75;4981238;28;19922;-69
2022/03/04 10:15:21;;;;;;;;;;;27.30;14.10;;;17.49;28.08;96096.09;4989355;28;20382;-69
2022/03/04 10:18:00;;;;;;;;;;;28.20;13.20;;;18.13;27.05;96089.75;4959408;28;19930;-69
2022/03/04 10:20:43;;;;;;;;;;;29.00;12.80;;;18.61;27.16;96086.66;4962305;28;19922;-71
2022/03/04 10:23:13;;;;;;;;;;;29.50;12.20;;;18.97;26.47;96081.97;4984931;28;19998;-67
2022/03/04 10:25:42;;;;;;;;;;;30.10;11.80;;;19.28;26.12;96088.59;4972733;28;19929;-66
2022/03/04 10:28:08;;;;;;;;;;;30.30;11.30;;;19.52;25.58;96095.34;4997946;28;19928;-68
2022/03/04 10:30:34;;;;;;;;;;;30.70;10.90;;;19.80;26.12;96091.75;4991064;28;19926;-69
2022/03/04 10:33:10;;;;;;;;;;;30.80;10.60;;;19.98;25.61;96093.31;4992166;28;19961;-69
2022/03/04 10:35:37;;;;;;;;;;;31.30;10.40;;;20.33;25.72;96089.44;4974762;28;19922;-70
2022/03/04 10:38:04;;;;;;;;;;;31.50;10.30;;;20.68;26.44;96087.19;4973056;28;19922;-67
2022/03/04 10:40:35;;;;;;;;;;;32.00;10.20;;;20.92;24.75;96097.56;4982442;28;19922;-66
2022/03/04 10:43:02;;;;;;;;;;;32.40;9.80;;;21.21;24.74;96079.34;4956986;28;20398;-66
2022/03/04 10:45:41;;;;;;;;;;;33.00;9.50;;;21.37;24.84;96089.94;4980778;28;19925;-67
2022/03/04 10:48:13;;;;;;;;;;;33.10;9.50;;;21.67;24.11;96083.16;4977759;28;19922;-67
2022/03/04 10:50:51;;;;;;;;;;;32.70;9.10;;;21.78;23.96;96089.38;4984010;28;19926;-67
2022/03/04 10:53:21;;;;;;;;;;;33.00;9.40;;;22.10;24.04;96086.59;4993489;28;19922;-65
2022/03/04 10:55:51;;;;;;;;;;;33.50;9.30;;;22.30;23.25;96081.31;4987863;28;19983;-70
2022/03/04 10:58:36;;;;;;;;;;;34.00;9.40;;;22.58;24.00;96082.72;4969569;28;19922;-67
2022/03/04 11:01:08;;;;;;;;;;;34.10;8.90;;;22.73;23.84;96073.91;4980161;28;20365;-65
2022/03/04 11:03:34;;;;;;;;;;;34.50;8.70;;;22.89;23.45;96086.31;4955725;28;19961;-65
2022/03/04 11:06:01;;;;;;;;;;;34.20;9.10;;;22.91;23.95;96076.13;4964341;28;19929;-65
2022/03/04 11:08:27;;;;;;;;;;;34.10;9.30;;;23.21;22.92;96076.09;4945012;28;19922;-66
2022/03/04 11:10:53;;;;;;;;;;;35.00;8.80;;;23.60;23.32;96072.06;4971833;28;19927;-67
2022/03/04 11:13:19;;;;;;;;;;;35.50;8.50;;;23.82;22.72;96069.88;4982162;28;19921;-67